Time;durP1;ratioP1;P1;durP2;ratioP2;P2;SDS_P1;SDS_P2;PMS_P1;PMS_P2;Temp;Humidity;BMP_temperature;BMP_pressure;BME280_temperature;BME280_humidity;BME280_pressure;Samples;Min_cycle;Max_cycle;Signal;HPM_P1;HPM_P2
2021/06/14 00:01:02;;;;;;;6.85;3.45;;;23.60;99.90;;;;;;5050267;28;20235;-81
2021/06/14 00:03:29;;;;;;;4.63;3.17;;;23.40;99.90;;;;;;5052440;28;20214;-79
2021/06/14 00:05:56;;;;;;;5.70;2.90;;;23.30;99.90;;;;;;5053729;28;20210;-81
2021/06/14 00:08:25;;;;;;;2.42;2.30;;;23.30;99.90;;;;;;5053205;28;20265;-78
2021/06/14 00:10:56;;;;;;;3.17;2.90;;;23.30;99.90;;;;;;5054137;28;20206;-79
2021/06/14 00:13:26;;;;;;;3.95;3.50;;;23.10;99.90;;;;;;5053267;28;20215;-79
2021/06/14 00:15:53;;;;;;;3.55;3.03;;;23.00;99.90;;;;;;5053804;28;20210;-79
2021/06/14 00:18:22;;;;;;;4.07;2.97;;;23.10;99.90;;;;;;5053329;28;20210;-79
2021/06/14 00:20:53;;;;;;;4.82;3.30;;;23.00;99.90;;;;;;5053143;28;20647;-79
2021/06/14 00:23:22;;;;;;;3.97;3.17;;;23.00;99.90;;;;;;5053017;28;20214;-78
2021/06/14 00:25:49;;;;;;;3.75;3.28;;;23.00;99.90;;;;;;5053992;28;20214;-78
2021/06/14 00:28:17;;;;;;;5.72;3.00;;;23.10;99.90;;;;;;5053259;28;20210;-82
2021/06/14 00:30:47;;;;;;;3.78;3.47;;;22.90;99.90;;;;;;5053391;28;20206;-78
2021/06/14 00:33:17;;;;;;;3.85;3.55;;;22.90;99.90;;;;;;5053213;28;20616;-80
2021/06/14 00:35:45;;;;;;;3.60;3.30;;;22.90;99.90;;;;;;5053133;28;20566;-80
2021/06/14 00:38:13;;;;;;;3.85;3.40;;;23.00;99.90;;;;;;5053204;28;20272;-78
2021/06/14 00:40:41;;;;;;;5.13;3.45;;;22.80;99.90;;;;;;5053108;28;20276;-78
2021/06/14 00:43:09;;;;;;;4.03;3.58;;;22.80;99.90;;;;;;5053100;28;20215;-77
2021/06/14 00:45:39;;;;;;;5.00;4.40;;;22.70;99.90;;;;;;5053290;28;20207;-79
2021/06/14 00:48:09;;;;;;;3.75;3.45;;;22.60;99.90;;;;;;5053370;28;20663;-80
2021/06/14 00:50:40;;;;;;;4.78;3.60;;;22.50;99.90;;;;;;5052930;28;20268;-80
2021/06/14 00:53:09;;;;;;;3.58;3.28;;;22.50;99.90;;;;;;5052975;28;20203;-79
2021/06/14 00:55:37;;;;;;;3.55;3.25;;;22.50;99.90;;;;;;5053188;28;20206;-80
2021/06/14 00:58:05;;;;;;;4.60;4.20;;;22.50;99.90;;;;;;5052904;28;20563;-79
2021/06/14 01:00:32;;;;;;;3.63;3.33;;;22.50;99.90;;;;;;5053135;28;20990;-79
2021/06/14 01:02:59;;;;;;;4.35;3.92;;;22.50;99.90;;;;;;5052549;28;20631;-79
2021/06/14 01:05:30;;;;;;;3.83;3.42;;;22.50;99.90;;;;;;5052415;28;20211;-80
2021/06/14 01:07:57;;;;;;;6.95;3.38;;;22.60;99.90;;;;;;5052840;28;20272;-79
2021/06/14 01:10:24;;;;;;;5.30;4.90;;;22.50;99.90;;;;;;5052330;28;20222;-79
2021/06/14 01:13:07;;;;;;;4.07;3.67;;;22.40;99.90;;;;;;5052930;28;20221;-79
2021/06/14 01:15:40;;;;;;;3.75;3.47;;;22.40;99.90;;;;;;5029775;28;20260;-84
2021/06/14 01:18:11;;;;;;;4.93;3.92;;;22.40;99.90;;;;;;5052659;28;20207;-84
2021/06/14 01:20:55;;;;;;;3.88;3.42;;;22.30;99.90;;;;;;5053215;28;20241;-85
2021/06/14 01:23:41;;;;;;;4.10;3.20;;;22.30;99.90;;;;;;5052764;28;20225;-85
2021/06/14 01:26:13;;;;;;;4.35;3.95;;;22.30;99.90;;;;;;5052378;28;20214;-81
2021/06/14 01:28:43;;;;;;;4.72;4.05;;;22.20;99.90;;;;;;5052135;28;20203;-81
2021/06/14 01:31:10;;;;;;;4.68;2.95;;;22.20;99.90;;;;;;5052253;28;20621;-80
2021/06/14 01:33:38;;;;;;;3.60;3.40;;;22.20;99.90;;;;;;5051804;28;20207;-80
2021/06/14 01:36:09;;;;;;;3.65;3.35;;;22.20;99.90;;;;;;5037235;28;20215;-80
2021/06/14 01:38:38;;;;;;;4.03;3.72;;;22.20;99.90;;;;;;5051967;28;20202;-80
2021/06/14 01:41:08;;;;;;;3.95;3.42;;;22.10;99.90;;;;;;5051926;28;20705;-77
2021/06/14 01:43:40;;;;;;;4.38;3.70;;;22.00;99.90;;;;;;5052308;28;20219;-80
2021/06/14 01:46:10;;;;;;;5.50;3.38;;;22.00;99.90;;;;;;5051974;28;20252;-80
2021/06/14 01:48:39;;;;;;;3.58;3.28;;;22.00;99.90;;;;;;5051973;28;20203;-80
2021/06/14 01:51:09;;;;;;;6.75;4.65;;;22.00;99.90;;;;;;5052379;28;20206;-80
2021/06/14 01:53:36;;;;;;;7.65;4.20;;;22.00;99.90;;;;;;5051952;28;20276;-80
2021/06/14 01:56:04;;;;;;;4.10;3.30;;;21.90;99.90;;;;;;5052534;28;20199;-81
2021/06/14 01:58:32;;;;;;;3.80;3.50;;;21.90;99.90;;;;;;5051802;28;20203;-80
2021/06/14 02:01:01;;;;;;;4.63;4.10;;;22.00;99.90;;;;;;5052205;28;20292;-80
2021/06/14 02:03:30;;;;;;;4.53;4.13;;;21.80;99.90;;;;;;5051579;28;20219;-80
2021/06/14 02:06:00;;;;;;;6.63;4.40;;;21.80;99.90;;;;;;5024020;28;20640;-80
2021/06/14 02:08:28;;;;;;;4.55;3.10;;;21.90;99.90;;;;;;5051586;28;20218;-82
2021/06/14 02:10:58;;;;;;;4.28;3.53;;;21.90;99.90;;;;;;5051648;28;20868;-82
2021/06/14 02:13:25;;;;;;;4.40;3.90;;;21.80;99.90;;;;;;5051466;28;20317;-82
2021/06/14 02:15:53;;;;;;;3.67;3.38;;;21.80;99.90;;;;;;5051165;28;20206;-81
2021/06/14 02:18:23;;;;;;;4.28;3.97;;;21.80;99.90;;;;;;5051110;28;20678;-81
2021/06/14 02:20:52;;;;;;;3.85;3.65;;;21.80;99.90;;;;;;5051708;28;20612;-79
2021/06/14 02:23:19;;;;;;;4.78;4.18;;;21.80;99.90;;;;;;5051304;28;20289;-80
2021/06/14 02:25:46;;;;;;;4.03;3.72;;;21.70;99.90;;;;;;5050292;28;20218;-80
2021/06/14 02:28:14;;;;;;;4.03;3.45;;;21.70;99.90;;;;;;5051462;28;20219;-81
2021/06/14 02:30:41;;;;;;;4.50;4.10;;;21.70;99.90;;;;;;5051055;28;20215;-81
2021/06/14 02:33:08;;;;;;;5.32;3.78;;;21.70;99.90;;;;;;5051354;28;20207;-78
2021/06/14 02:35:35;;;;;;;3.53;3.25;;;21.60;99.90;;;;;;5051752;28;20260;-77
2021/06/14 02:38:08;;;;;;;6.93;3.72;;;21.50;99.90;;;;;;5051537;28;20198;-78
2021/06/14 02:40:36;;;;;;;4.60;4.03;;;21.60;99.90;;;;;;5051078;28;20633;-77
2021/06/14 02:43:07;;;;;;;7.20;3.90;;;21.50;99.90;;;;;;5051110;28;20215;-78
2021/06/14 02:45:34;;;;;;;3.97;3.67;;;21.50;99.90;;;;;;5051150;28;20582;-78
2021/06/14 02:48:03;;;;;;;4.18;3.78;;;21.50;99.90;;;;;;5051516;28;20214;-78
2021/06/14 02:50:32;;;;;;;4.05;3.35;;;21.50;99.90;;;;;;5051212;28;20218;-77
2021/06/14 02:53:03;;;;;;;4.10;3.70;;;21.50;99.90;;;;;;5050923;28;20210;-78
2021/06/14 02:55:36;;;;;;;4.85;3.38;;;21.50;99.90;;;;;;5050766;28;20260;-80
2021/06/14 02:58:04;;;;;;;4.85;3.97;;;21.50;99.90;;;;;;5051627;28;20215;-80
2021/06/14 03:00:33;;;;;;;4.28;3.80;;;21.50;99.90;;;;;;5050438;28;20266;-80
2021/06/14 03:03:02;;;;;;;3.95;3.65;;;21.50;99.90;;;;;;5051113;28;20207;-81
2021/06/14 03:05:30;;;;;;;5.45;3.63;;;21.40;99.90;;;;;;5050300;28;20260;-80
2021/06/14 03:07:59;;;;;;;4.43;4.03;;;21.40;99.90;;;;;;5051124;28;20268;-80
2021/06/14 03:10:29;;;;;;;7.00;4.72;;;21.50;99.90;;;;;;5050141;28;20803;-80
2021/06/14 03:12:59;;;;;;;5.78;3.45;;;21.50;99.90;;;;;;5051006;28;20210;-81
2021/06/14 03:15:27;;;;;;;4.38;3.95;;;21.40;99.90;;;;;;5050120;28;20210;-82
2021/06/14 03:17:55;;;;;;;4.63;4.15;;;21.40;99.90;;;;;;5050538;28;20263;-80
2021/06/14 03:20:25;;;;;;;4.40;3.90;;;21.40;99.90;;;;;;5049879;28;20653;-80
2021/06/14 03:22:52;;;;;;;4.63;4.20;;;21.30;99.90;;;;;;5050554;28;20248;-79
2021/06/14 03:25:20;;;;;;;4.28;3.97;;;21.10;99.90;;;;;;5050495;28;20268;-80
2021/06/14 03:27:48;;;;;;;5.43;4.60;;;20.90;99.90;;;;;;5050513;28;20592;-79
2021/06/14 03:30:20;;;;;;;6.00;4.25;;;21.00;99.90;;;;;;5049978;28;20630;-79
2021/06/14 03:32:49;;;;;;;9.55;4.07;;;21.10;99.90;;;;;;5050538;28;20261;-80
2021/06/14 03:35:19;;;;;;;5.40;4.90;;;21.00;99.90;;;;;;5050352;28;20206;-79
2021/06/14 03:37:46;;;;;;;4.78;4.35;;;21.00;99.90;;;;;;5053462;28;20262;-80
2021/06/14 03:40:16;;;;;;;3.83;3.47;;;20.90;99.90;;;;;;5056579;28;20594;-80
2021/06/14 03:42:45;;;;;;;4.38;3.95;;;20.90;99.90;;;;;;5044087;28;20230;-78
2021/06/14 03:45:14;;;;;;;5.38;4.10;;;20.90;99.90;;;;;;5044687;28;20697;-79
2021/06/14 03:47:42;;;;;;;3.85;3.55;;;20.90;99.90;;;;;;5053170;28;20281;-80
2021/06/14 03:50:11;;;;;;;4.10;3.72;;;20.90;99.90;;;;;;5055122;28;20236;-79
2021/06/14 03:52:42;;;;;;;5.60;4.30;;;20.90;99.90;;;;;;5057077;28;20293;-80
2021/06/14 03:55:10;;;;;;;4.57;4.03;;;20.90;99.90;;;;;;5056436;28;20211;-78
2021/06/14 03:57:38;;;;;;;5.00;4.45;;;20.90;99.90;;;;;;5056817;28;20210;-78
2021/06/14 04:00:07;;;;;;;5.35;4.68;;;21.00;99.90;;;;;;5053086;28;20249;-79
2021/06/14 04:02:34;;;;;;;4.47;4.05;;;21.00;99.90;;;;;;5057412;28;20230;-79
2021/06/14 04:05:02;;;;;;;5.78;4.45;;;21.00;99.90;;;;;;5057085;28;20210;-78
2021/06/14 04:07:29;;;;;;;6.15;5.13;;;20.90;99.90;;;;;;5056600;28;20213;-78
2021/06/14 04:09:59;;;;;;;3.67;3.42;;;20.80;99.90;;;;;;5056777;28;20210;-78
2021/06/14 04:12:26;;;;;;;4.47;4.10;;;20.90;99.90;;;;;;5055987;28;20728;-79
2021/06/14 04:14:54;;;;;;;4.63;4.22;;;20.90;99.90;;;;;;5057152;28;20207;-78
2021/06/14 04:17:21;;;;;;;4.63;4.03;;;20.90;99.90;;;;;;5056133;28;20257;-79
2021/06/14 04:19:48;;;;;;;4.93;4.18;;;21.00;99.90;;;;;;5056986;28;20207;-78
2021/06/14 04:22:16;;;;;;;3.47;3.22;;;21.00;99.90;;;;;;5056007;28;20230;-78
2021/06/14 04:24:44;;;;;;;4.15;3.85;;;21.00;99.90;;;;;;5056655;28;20211;-79
2021/06/14 04:27:11;;;;;;;4.18;3.65;;;20.80;99.90;;;;;;5055888;28;20257;-81
2021/06/14 04:29:39;;;;;;;5.03;4.45;;;20.70;99.90;;;;;;5056717;28;20276;-83
2021/06/14 04:32:07;;;;;;;4.70;4.30;;;20.80;99.90;;;;;;5057109;28;20293;-83
2021/06/14 04:34:34;;;;;;;5.13;4.63;;;21.00;99.90;;;;;;5057144;28;20207;-83
2021/06/14 04:37:01;;;;;;;7.78;4.32;;;20.90;99.90;;;;;;5047932;28;20206;-83
2021/06/14 04:39:30;;;;;;;5.10;4.18;;;20.90;99.90;;;;;;5054981;28;20659;-83
2021/06/14 04:41:57;;;;;;;6.85;4.53;;;20.90;99.90;;;;;;5056813;28;20230;-83
2021/06/14 04:44:24;;;;;;;6.20;4.95;;;20.90;99.90;;;;;;5056294;28;20222;-84
2021/06/14 04:46:51;;;;;;;6.10;4.53;;;20.80;99.90;;;;;;5056690;28;20556;-79
2021/06/14 04:49:18;;;;;;;4.93;4.35;;;20.90;99.90;;;;;;5053856;28;20252;-79
2021/06/14 04:51:45;;;;;;;4.25;3.83;;;20.90;99.90;;;;;;5053263;28;20215;-82
2021/06/14 04:54:12;;;;;;;5.82;4.93;;;20.90;99.90;;;;;;5053022;28;20264;-80
2021/06/14 04:56:41;;;;;;;7.38;4.72;;;21.00;99.90;;;;;;5053175;28;20611;-80
2021/06/14 04:59:08;;;;;;;5.30;4.80;;;20.90;99.90;;;;;;5052861;28;20264;-80
2021/06/14 05:01:35;;;;;;;6.38;5.15;;;21.10;99.90;;;;;;5053152;28;20284;-81
2021/06/14 05:04:02;;;;;;;7.38;3.95;;;21.00;99.90;;;;;;5053402;28;20203;-83
2021/06/14 05:06:30;;;;;;;6.20;4.65;;;20.90;99.90;;;;;;5052864;28;20268;-82
2021/06/14 05:08:57;;;;;;;5.90;4.78;;;20.90;99.90;;;;;;5052472;28;20743;-83
2021/06/14 05:11:24;;;;;;;9.43;4.70;;;21.00;99.90;;;;;;5046952;28;20218;-80
2021/06/14 05:13:53;;;;;;;12.57;5.88;;;20.90;99.90;;;;;;5044722;28;20235;-81
2021/06/14 05:16:20;;;;;;;6.25;5.13;;;21.10;99.90;;;;;;5052420;28;20203;-83
2021/06/14 05:18:47;;;;;;;6.38;4.10;;;21.10;99.90;;;;;;5040398;28;20255;-82
2021/06/14 05:21:14;;;;;;;10.73;5.07;;;21.10;99.90;;;;;;5052594;28;20207;-83
2021/06/14 05:23:41;;;;;;;5.30;4.38;;;21.10;99.90;;;;;;5052885;28;20207;-83
2021/06/14 05:26:09;;;;;;;6.90;5.20;;;21.20;99.90;;;;;;5052448;28;20203;-80
2021/06/14 05:28:36;;;;;;;9.88;4.25;;;21.20;99.90;;;;;;5052633;28;20207;-82
2021/06/14 05:31:05;;;;;;;5.53;3.97;;;21.20;99.90;;;;;;5042835;28;20203;-83
2021/06/14 05:33:32;;;;;;;5.90;5.07;;;21.30;99.90;;;;;;5052872;28;20207;-83
2021/06/14 05:35:59;;;;;;;7.88;5.30;;;21.40;99.90;;;;;;5052622;28;20282;-83
2021/06/14 05:38:26;;;;;;;7.80;4.65;;;21.60;99.90;;;;;;5052135;28;20210;-83
2021/06/14 05:40:53;;;;;;;7.75;5.30;;;21.70;99.90;;;;;;5052183;28;20210;-83
2021/06/14 05:43:20;;;;;;;8.73;5.80;;;21.70;99.90;;;;;;5051427;28;20284;-83
2021/06/14 05:45:47;;;;;;;8.73;5.35;;;21.70;99.90;;;;;;5052371;28;20206;-83
2021/06/14 05:48:16;;;;;;;8.55;4.78;;;21.80;99.90;;;;;;5051695;28;20212;-83
2021/06/14 05:50:43;;;;;;;14.43;5.35;;;21.80;99.90;;;;;;5052217;28;20211;-83
2021/06/14 05:53:11;;;;;;;9.88;5.07;;;21.80;99.90;;;;;;5051549;28;20674;-80
2021/06/14 05:55:39;;;;;;;7.57;5.57;;;21.90;99.90;;;;;;5052306;28;20249;-81
2021/06/14 05:58:06;;;;;;;7.53;5.78;;;22.00;99.90;;;;;;5051996;28;20218;-80
2021/06/14 06:00:34;;;;;;;7.20;5.35;;;22.10;99.90;;;;;;5052261;28;20669;-77
2021/06/14 06:03:01;;;;;;;11.13;5.70;;;22.30;99.90;;;;;;5052392;28;20234;-80
2021/06/14 06:05:30;;;;;;;15.07;4.93;;;22.30;99.90;;;;;;5051153;28;20271;-81
2021/06/14 06:07:57;;;;;;;9.02;4.65;;;22.30;99.90;;;;;;5044283;28;20203;-81
2021/06/14 06:10:24;;;;;;;9.45;4.72;;;22.40;99.90;;;;;;5051389;28;20643;-80
2021/06/14 06:12:51;;;;;;;12.30;5.10;;;22.50;99.90;;;;;;5051893;28;20203;-80
2021/06/14 06:15:20;;;;;;;9.68;4.88;;;22.60;99.90;;;;;;5051206;28;20268;-81
2021/06/14 06:17:48;;;;;;;15.27;5.07;;;22.70;99.90;;;;;;5052252;28;20217;-85
2021/06/14 06:20:17;;;;;;;8.40;5.10;;;22.80;99.90;;;;;;5051823;28;20253;-85
2021/06/14 06:22:47;;;;;;;8.65;5.55;;;22.90;99.90;;;;;;5052234;28;20226;-85
2021/06/14 06:25:17;;;;;;;6.93;4.53;;;23.00;99.90;;;;;;5050767;28;20253;-85
2021/06/14 06:27:45;;;;;;;11.65;5.32;;;23.10;99.90;;;;;;5051926;28;20234;-85
2021/06/14 06:30:15;;;;;;;7.05;5.38;;;23.20;99.90;;;;;;5045422;28;20218;-86
2021/06/14 06:32:42;;;;;;;9.60;5.05;;;23.30;99.90;;;;;;5049506;28;20248;-85
2021/06/14 06:35:11;;;;;;;10.35;5.22;;;23.50;99.90;;;;;;5050075;28;20217;-80
2021/06/14 06:37:38;;;;;;;8.30;4.25;;;23.70;99.90;;;;;;5050414;28;20618;-80
2021/06/14 06:40:08;;;;;;;9.70;5.65;;;23.80;99.90;;;;;;5051099;28;20234;-80
2021/06/14 06:42:36;;;;;;;6.88;4.90;;;23.90;99.90;;;;;;5051029;28;20239;-78
2021/06/14 06:45:05;;;;;;;6.53;4.70;;;24.00;99.90;;;;;;5051151;28;20268;-80
2021/06/14 06:47:32;;;;;;;9.57;5.22;;;24.00;99.90;;;;;;5051063;28;20260;-80
2021/06/14 06:49:59;;;;;;;7.38;4.80;;;24.20;99.90;;;;;;5050968;28;20211;-79
2021/06/14 06:52:26;;;;;;;10.63;4.78;;;24.40;99.90;;;;;;5041403;28;20257;-80
2021/06/14 06:54:53;;;;;;;11.27;4.00;;;24.40;99.90;;;;;;5046222;28;20207;-80
2021/06/14 06:57:21;;;;;;;6.40;4.28;;;24.50;99.90;;;;;;5050820;28;20237;-80
2021/06/14 06:59:48;;;;;;;5.82;4.93;;;24.80;99.90;;;;;;5050966;28;20203;-78
2021/06/14 07:02:15;;;;;;;12.68;4.93;;;24.80;99.90;;;;;;5022699;28;20272;-86
2021/06/14 07:04:42;;;;;;;5.18;4.63;;;24.80;99.90;;;;;;5048125;28;20215;-89
2021/06/14 07:07:10;;;;;;;12.32;4.07;;;24.80;99.90;;;;;;5033405;28;20677;-83
2021/06/14 07:09:37;;;;;;;5.55;3.55;;;24.90;99.90;;;;;;5051563;28;20256;-87
2021/06/14 07:12:05;;;;;;;6.97;4.60;;;24.90;99.90;;;;;;5040674;28;20208;-83
2021/06/14 07:14:33;;;;;;;9.52;4.38;;;25.10;99.90;;;;;;5041688;28;20211;-76
2021/06/14 07:17:01;;;;;;;5.43;3.78;;;25.20;99.90;;;;;;5044340;28;20264;-84
2021/06/14 07:19:28;;;;;;;6.03;4.20;;;25.30;99.90;;;;;;5035282;28;20215;-77
2021/06/14 07:21:55;;;;;;;5.47;4.35;;;25.50;99.90;;;;;;5037310;28;20583;-81
2021/06/14 07:24:22;;;;;;;4.85;4.45;;;25.60;99.90;;;;;;5043048;28;20264;-81
2021/06/14 07:26:49;;;;;;;5.97;4.00;;;25.80;99.90;;;;;;5039661;28;20264;-80
2021/06/14 07:29:16;;;;;;;5.65;4.30;;;25.90;99.90;;;;;;5046190;28;20203;-81
2021/06/14 07:31:45;;;;;;;4.80;4.05;;;26.40;99.90;;;;;;5037472;28;20261;-81
2021/06/14 07:34:11;;;;;;;6.35;4.35;;;26.80;99.90;;;;;;5040257;28;20678;-81
2021/06/14 07:36:38;;;;;;;5.35;3.75;;;26.70;99.90;;;;;;5042776;28;20667;-83
2021/06/14 07:39:06;;;;;;;3.90;3.55;;;26.60;99.90;;;;;;5040592;28;20622;-76
2021/06/14 07:41:33;;;;;;;4.25;3.72;;;27.00;99.90;;;;;;5048352;28;20207;-82
2021/06/14 07:44:00;;;;;;;4.25;3.92;;;29.20;99.90;;;;;;5039652;28;20235;-85
2021/06/14 07:46:27;;;;;;;3.45;3.15;;;30.60;99.90;;;;;;5034131;28;20269;-90
2021/06/14 07:48:56;;;;;;;5.35;3.25;;;30.00;99.90;;;;;;5039851;28;20211;-83
2021/06/14 07:51:23;;;;;;;6.18;3.72;;;30.30;99.90;;;;;;5047864;28;20210;-81
2021/06/14 07:53:51;;;;;;;4.82;3.58;;;28.90;99.90;;;;;;5046999;28;20693;-78
2021/06/14 07:56:18;;;;;;;6.22;2.97;;;29.60;99.90;;;;;;5045619;28;20673;-87
2021/06/14 07:58:46;;;;;;;4.97;3.58;;;29.90;99.90;;;;;;5047964;28;20206;-82
2021/06/14 08:01:13;;;;;;;2.55;2.35;;;29.60;99.90;;;;;;5036419;28;20218;-87
2021/06/14 08:03:40;;;;;;;8.52;3.65;;;30.80;99.90;;;;;;5032440;28;20230;-91
2021/06/14 08:06:09;;;;;;;7.97;3.15;;;32.50;99.90;;;;;;5028548;28;20199;-91
2021/06/14 08:08:37;;;;;;;4.85;2.83;;;31.70;99.90;;;;;;5031461;28;20208;-88
2021/06/14 08:11:04;;;;;;;4.07;2.70;;;31.60;99.90;;;;;;5031010;28;20204;-88
2021/06/14 08:13:31;;;;;;;2.90;2.42;;;30.70;99.90;;;;;;5031486;28;20204;-86
2021/06/14 08:15:59;;;;;;;3.58;2.90;;;31.80;99.90;;;;;;5029853;28;20290;-84
2021/06/14 08:18:35;;;;;;;3.35;3.05;;;32.50;99.90;;;;;;5028962;28;20265;-79
2021/06/14 08:26:30;;;;;;;3.33;3.13;;;30.40;99.90;;;;;;5038836;28;20213;-79
2021/06/14 08:28:59;;;;;;;3.72;3.40;;;30.00;99.90;;;;;;5034249;28;20262;-82
2021/06/14 08:31:26;;;;;;;6.03;2.95;;;29.50;99.90;;;;;;5033842;28;20310;-82
2021/06/14 08:33:53;;;;;;;2.90;2.70;;;29.40;99.90;;;;;;5027080;28;20554;-83
2021/06/14 08:36:20;;;;;;;4.20;2.80;;;29.40;99.90;;;;;;5036005;28;20678;-84
2021/06/14 08:38:49;;;;;;;6.07;3.20;;;29.70;99.90;;;;;;5032113;28;20257;-79
2021/06/14 08:41:17;;;;;;;4.55;3.15;;;29.80;99.90;;;;;;5037579;28;20211;-79
2021/06/14 08:43:45;;;;;;;6.78;3.20;;;30.20;99.90;;;;;;5034311;28;20267;-82
2021/06/14 08:46:12;;;;;;;3.38;3.08;;;30.30;99.90;;;;;;5048419;28;20211;-87
2021/06/14 08:48:41;;;;;;;3.80;2.90;;;30.40;99.90;;;;;;5033630;28;20208;-83
2021/06/14 08:51:09;;;;;;;4.30;2.85;;;30.70;99.90;;;;;;5030968;28;20281;-78
2021/06/14 08:53:37;;;;;;;3.40;2.80;;;30.80;99.90;;;;;;5034262;28;20278;-78
2021/06/14 08:56:11;;;;;;;6.53;3.15;;;31.10;99.90;;;;;;5034328;28;20628;-77
2021/06/14 08:58:38;;;;;;;9.10;4.35;;;31.60;99.90;;;;;;5036597;28;20581;-83
2021/06/14 09:01:05;;;;;;;18.88;3.72;;;32.30;99.90;;;;;;5037096;28;20204;-79
2021/06/14 09:03:32;;;;;;;1.90;1.80;;;33.10;99.90;;;;;;5036205;28;20231;-85
2021/06/14 09:05:59;;;;;;;2.90;2.70;;;32.80;99.90;;;;;;5039792;28;20207;-84
2021/06/14 09:08:27;;;;;;;2.85;2.65;;;33.70;99.90;;;;;;5035321;28;20206;-86
2021/06/14 09:10:55;;;;;;;2.10;2.00;;;35.20;99.90;;;;;;5046188;28;20666;-85
2021/06/14 09:13:25;;;;;;;2.35;2.15;;;37.40;99.90;;;;;;5028016;28;20240;-87
2021/06/14 09:15:54;;;;;;;2.30;2.10;;;36.10;99.90;;;;;;5026097;28;20210;-87
2021/06/14 09:18:25;;;;;;;3.13;1.98;;;34.30;99.90;;;;;;5051464;28;20677;-85
2021/06/14 09:20:58;;;;;;;2.55;2.40;;;34.20;99.90;;;;;;5046614;28;20298;-75
2021/06/14 09:23:26;;;;;;;4.07;2.47;;;33.60;99.90;;;;;;5037601;28;20241;-76
2021/06/14 09:25:53;;;;;;;2.30;2.10;;;32.70;99.90;;;;;;5031930;28;20222;-81
2021/06/14 09:28:20;;;;;;;2.72;2.22;;;32.60;99.90;;;;;;5032086;28;20233;-78
2021/06/14 09:30:49;;;;;;;5.10;2.15;;;33.50;99.90;;;;;;5032351;28;20677;-78
2021/06/14 09:33:23;;;;;;;2.80;2.10;;;33.70;99.90;;;;;;5030916;28;20245;-78
2021/06/14 09:35:52;;;;;;;2.50;2.30;;;33.10;99.90;;;;;;5029085;28;20210;-81
2021/06/14 09:38:25;;;;;;;1.70;1.60;;;32.80;99.90;;;;;;5036468;28;20238;-79
2021/06/14 09:40:55;;;;;;;3.63;2.85;;;32.70;99.90;;;;;;5033699;28;20664;-79
2021/06/14 09:43:26;;;;;;;10.60;3.45;;;32.80;99.90;;;;;;5041382;28;20245;-77
2021/06/14 09:45:55;;;;;;;6.22;2.53;;;32.50;99.90;;;;;;5051721;28;20233;-79
2021/06/14 09:48:24;;;;;;;2.53;2.33;;;32.50;99.90;;;;;;5033669;28;20205;-79
2021/06/14 09:50:52;;;;;;;3.38;2.35;;;32.70;99.90;;;;;;5025937;28;20206;-76
2021/06/14 09:53:22;;;;;;;4.30;2.42;;;32.90;99.90;;;;;;5028915;28;20629;-79
2021/06/14 09:55:50;;;;;;;3.50;1.98;;;33.40;99.90;;;;;;5034698;28;20215;-81
2021/06/14 09:58:20;;;;;;;1.80;1.67;;;33.80;99.90;;;;;;5031728;28;20207;-80
2021/06/14 10:00:53;;;;;;;4.70;2.40;;;33.90;99.90;;;;;;5045747;28;20613;-83
2021/06/14 10:03:21;;;;;;;3.28;2.40;;;34.50;99.90;;;;;;5045558;28;20229;-81
2021/06/14 10:05:51;;;;;;;2.13;2.03;;;36.90;99.90;;;;;;5050508;28;20206;-81
2021/06/14 10:08:29;;;;;;;2.00;1.90;;;36.30;99.90;;;;;;5048294;28;20213;-86
2021/06/14 10:11:08;;;;;;;1.70;1.60;;;36.40;99.90;;;;;;5029309;28;20206;-80
2021/06/14 10:13:37;;;;;;;2.67;1.95;;;36.30;99.90;;;;;;5031266;28;20194;-78
2021/06/14 10:16:06;;;;;;;4.78;2.22;;;35.40;99.90;;;;;;5032237;28;20626;-80
2021/06/14 10:18:38;;;;;;;1.75;1.55;;;35.00;99.90;;;;;;5031098;28;20214;-78
2021/06/14 10:21:10;;;;;;;2.35;2.17;;;34.80;99.90;;;;;;5038042;28;20249;-81
2021/06/14 10:23:37;;;;;;;2.17;1.98;;;35.10;99.90;;;;;;5024990;28;20219;-78
2021/06/14 10:26:05;;;;;;;2.10;2.00;;;35.90;99.90;;;;;;5030885;28;20207;-81
2021/06/14 10:28:32;;;;;;;4.13;2.10;;;36.00;99.90;;;;;;5029111;28;20203;-78
2021/06/14 10:30:59;;;;;;;2.58;1.85;;;36.70;99.90;;;;;;5041751;28;20211;-78
2021/06/14 10:33:29;;;;;;;3.88;2.42;;;37.20;99.90;;;;;;5041932;28;20214;-82
2021/06/14 10:35:57;;;;;;;2.60;2.40;;;38.10;99.90;;;;;;5044898;28;20641;-82
2021/06/14 10:38:25;;;;;;;2.25;2.05;;;35.70;99.90;;;;;;5048572;28;20680;-82
2021/06/14 10:40:55;;;;;;;1.90;1.80;;;34.10;99.90;;;;;;5045395;28;20211;-80
2021/06/14 10:43:25;;;;;;;2.42;2.25;;;33.60;99.90;;;;;;5047500;28;20307;-84
2021/06/14 10:45:54;;;;;;;2.80;2.60;;;33.20;99.90;;;;;;5038944;28;20256;-80
2021/06/14 10:48:30;;;;;;;2.92;2.72;;;33.30;99.90;;;;;;5028833;28;20271;-82
2021/06/14 10:50:59;;;;;;;4.05;2.33;;;33.00;99.90;;;;;;5040657;28;20260;-81
2021/06/14 10:53:28;;;;;;;2.00;1.90;;;33.10;99.90;;;;;;5045958;28;20202;-82
2021/06/14 10:55:57;;;;;;;3.88;2.75;;;33.10;99.90;;;;;;5041592;28;20211;-78
2021/06/14 10:58:27;;;;;;;4.00;2.28;;;33.00;99.90;;;;;;5041936;28;20214;-77
2021/06/14 11:01:04;;;;;;;2.72;2.53;;;32.80;99.90;;;;;;5043439;28;20206;-83
2021/06/14 11:03:43;;;;;;;2.00;1.90;;;32.60;99.90;;;;;;5044513;28;20238;-83
2021/06/14 11:06:25;;;;;;;2.80;2.47;;;32.50;99.90;;;;;;5037194;28;20213;-86
2021/06/14 11:09:05;;;;;;;2.67;2.47;;;32.30;99.90;;;;;;5045228;28;20210;-89
2021/06/14 11:11:43;;;;;;;3.15;2.33;;;32.50;99.90;;;;;;5037847;28;20213;-86
2021/06/14 11:14:10;;;;;;;2.75;2.40;;;32.60;99.90;;;;;;5037635;28;20727;-90
2021/06/14 11:16:39;;;;;;;2.08;1.98;;;32.70;99.90;;;;;;5040273;28;20203;-90
2021/06/14 11:19:09;;;;;;;4.72;3.05;;;33.00;99.90;;;;;;5043263;28;20209;-88
2021/06/14 11:21:39;;;;;;;3.88;2.47;;;33.00;99.90;;;;;;5031896;28;20203;-86
2021/06/14 11:24:09;;;;;;;2.88;2.50;;;33.10;99.90;;;;;;5033225;28;20301;-91
2021/06/14 11:26:37;;;;;;;3.22;2.03;;;32.90;99.90;;;;;;5043982;28;20203;-89
2021/06/14 11:29:12;;;;;;;2.35;1.70;;;32.90;99.90;;;;;;5039960;28;20211;-90
2021/06/14 11:31:40;;;;;;;2.88;2.08;;;33.20;99.90;;;;;;5033907;28;20296;-83
2021/06/14 11:34:19;;;;;;;2.58;2.38;;;33.20;99.90;;;;;;5035482;28;20210;-83
2021/06/14 11:36:57;;;;;;;2.75;1.92;;;33.10;99.90;;;;;;5036126;28;20294;-82
2021/06/14 11:39:26;;;;;;;3.35;2.13;;;33.00;99.90;;;;;;5039325;28;20297;-82
2021/06/14 11:41:54;;;;;;;2.20;2.00;;;32.80;99.90;;;;;;5039513;28;20211;-84
2021/06/14 11:44:28;;;;;;;3.15;2.30;;;32.80;99.90;;;;;;5040920;28;20230;-83
2021/06/14 11:46:57;;;;;;;3.42;2.42;;;32.90;99.90;;;;;;5043614;28;20584;-84
2021/06/14 11:49:35;;;;;;;2.75;1.80;;;33.00;99.90;;;;;;5027600;28;20731;-84
2021/06/14 11:52:16;;;;;;;3.38;2.03;;;32.80;99.90;;;;;;5035654;28;20686;-83
2021/06/14 11:54:44;;;;;;;2.42;2.22;;;32.80;99.90;;;;;;5032953;28;20584;-83
2021/06/14 11:57:11;;;;;;;3.10;2.42;;;32.90;99.90;;;;;;5032268;28;20210;-81
2021/06/14 11:59:39;;;;;;;2.30;2.10;;;32.90;99.90;;;;;;5035025;28;20210;-78
2021/06/14 12:02:18;;;;;;;6.00;2.33;;;32.80;99.90;;;;;;5034959;28;20584;-81
2021/06/14 12:04:46;;;;;;;2.08;1.98;;;32.30;99.90;;;;;;5027284;28;20229;-77
2021/06/14 12:07:14;;;;;;;2.22;2.13;;;32.20;99.90;;;;;;5031683;28;20294;-79
2021/06/14 12:09:41;;;;;;;3.17;2.47;;;32.40;99.90;;;;;;5031011;28;20229;-78
2021/06/14 12:12:09;;;;;;;2.45;2.25;;;32.60;99.90;;;;;;5038160;28;20277;-78
2021/06/14 12:14:36;;;;;;;1.98;1.88;;;32.60;99.90;;;;;;5041330;28;20210;-79
2021/06/14 12:17:05;;;;;;;2.30;2.00;;;32.80;99.90;;;;;;5043524;28;20215;-77
2021/06/14 12:19:33;;;;;;;3.70;2.03;;;32.70;99.90;;;;;;5033366;28;20220;-77
2021/06/14 12:22:04;;;;;;;3.20;2.75;;;32.70;99.90;;;;;;5046463;28;20203;-76
2021/06/14 12:24:35;;;;;;;2.45;2.25;;;32.80;99.90;;;;;;5036404;28;20800;-78
2021/06/14 12:27:04;;;;;;;1.85;1.75;;;32.70;99.90;;;;;;5033317;28;20222;-81
2021/06/14 12:29:32;;;;;;;3.30;2.17;;;32.70;99.90;;;;;;5039283;28;20255;-86
2021/06/14 12:32:05;;;;;;;2.55;2.35;;;32.70;99.90;;;;;;5036887;28;20207;-80
2021/06/14 12:34:32;;;;;;;2.40;2.30;;;32.70;99.90;;;;;;5046608;28;20297;-81
2021/06/14 12:37:06;;;;;;;5.13;3.38;;;32.40;99.90;;;;;;5040395;28;20257;-81
2021/06/14 12:39:35;;;;;;;3.33;2.60;;;32.50;99.90;;;;;;5044862;28;20206;-80
2021/06/14 12:42:02;;;;;;;2.90;2.70;;;32.50;99.90;;;;;;5030938;28;20329;-85
2021/06/14 12:44:29;;;;;;;2.40;1.98;;;32.50;99.90;;;;;;5048888;28;20234;-81
2021/06/14 12:46:57;;;;;;;2.72;2.53;;;32.70;99.90;;;;;;5052447;28;20202;-84
2021/06/14 12:49:28;;;;;;;2.58;2.42;;;32.70;99.90;;;;;;5037568;28;20207;-81
2021/06/14 12:51:55;;;;;;;3.17;2.65;;;32.70;99.90;;;;;;5033459;28;20899;-81
2021/06/14 12:54:23;;;;;;;2.60;2.40;;;32.70;99.90;;;;;;5031572;28;20219;-81
2021/06/14 12:56:53;;;;;;;4.80;2.33;;;32.70;99.90;;;;;;5036674;28;20206;-87
2021/06/14 12:59:21;;;;;;;3.67;2.50;;;32.40;99.90;;;;;;5039606;28;20211;-84